sensor_id;sensor_type;location;lat;lon;timestamp;P1;durP1;ratioP1;P2;durP2;ratioP2
56043;SDS011;41912;51.022;3.664;2023-11-21T00:02:13;16.02;;;8.73;;
56043;SDS011;41912;51.022;3.664;2023-11-21T00:04:39;15.73;;;8.98;;
56043;SDS011;41912;51.022;3.664;2023-11-21T00:07:04;16.20;;;9.57;;
56043;SDS011;41912;51.022;3.664;2023-11-21T00:09:31;20.38;;;10.23;;
56043;SDS011;41912;51.022;3.664;2023-11-21T00:12:01;16.23;;;9.77;;
56043;SDS011;41912;51.022;3.664;2023-11-21T00:14:27;16.33;;;9.63;;
56043;SDS011;41912;51.022;3.664;2023-11-21T00:16:53;21.02;;;10.18;;
56043;SDS011;41912;51.022;3.664;2023-11-21T00:19:19;20.75;;;11.45;;
56043;SDS011;41912;51.022;3.664;2023-11-21T00:21:44;20.38;;;10.27;;
56043;SDS011;41912;51.022;3.664;2023-11-21T00:24:11;20.27;;;9.82;;
56043;SDS011;41912;51.022;3.664;2023-11-21T00:26:38;22.67;;;9.93;;
56043;SDS011;41912;51.022;3.664;2023-11-21T00:29:05;18.05;;;9.98;;
56043;SDS011;41912;51.022;3.664;2023-11-21T00:31:34;21.63;;;11.00;;
56043;SDS011;41912;51.022;3.664;2023-11-21T00:34:03;17.25;;;10.45;;
56043;SDS011;41912;51.022;3.664;2023-11-21T00:36:30;27.73;;;12.15;;
56043;SDS011;41912;51.022;3.664;2023-11-21T00:38:57;24.35;;;11.35;;
56043;SDS011;41912;51.022;3.664;2023-11-21T00:41:22;20.13;;;12.07;;
56043;SDS011;41912;51.022;3.664;2023-11-21T00:43:48;22.60;;;12.50;;
56043;SDS011;41912;51.022;3.664;2023-11-21T00:46:14;23.45;;;11.63;;
56043;SDS011;41912;51.022;3.664;2023-11-21T00:48:39;21.60;;;11.30;;
56043;SDS011;41912;51.022;3.664;2023-11-21T00:51:05;20.50;;;11.30;;
56043;SDS011;41912;51.022;3.664;2023-11-21T00:53:31;18.90;;;11.32;;
56043;SDS011;41912;51.022;3.664;2023-11-21T00:55:57;20.27;;;12.13;;
56043;SDS011;41912;51.022;3.664;2023-11-21T00:58:26;21.88;;;11.70;;
56043;SDS011;41912;51.022;3.664;2023-11-21T01:00:52;24.23;;;11.27;;
56043;SDS011;41912;51.022;3.664;2023-11-21T01:03:18;24.30;;;12.20;;
56043;SDS011;41912;51.022;3.664;2023-11-21T01:05:43;21.17;;;10.73;;
56043;SDS011;41912;51.022;3.664;2023-11-21T01:08:10;24.05;;;12.18;;
56043;SDS011;41912;51.022;3.664;2023-11-21T01:10:36;21.45;;;10.75;;
56043;SDS011;41912;51.022;3.664;2023-11-21T01:13:02;21.40;;;11.40;;
56043;SDS011;41912;51.022;3.664;2023-11-21T01:15:30;20.85;;;11.07;;
56043;SDS011;41912;51.022;3.664;2023-11-21T01:17:55;21.42;;;11.25;;
56043;SDS011;41912;51.022;3.664;2023-11-21T01:20:21;17.25;;;9.93;;
56043;SDS011;41912;51.022;3.664;2023-11-21T01:22:46;16.23;;;10.20;;
56043;SDS011;41912;51.022;3.664;2023-11-21T01:25:14;19.77;;;10.32;;
56043;SDS011;41912;51.022;3.664;2023-11-21T01:27:41;19.63;;;9.68;;
56043;SDS011;41912;51.022;3.664;2023-11-21T01:30:07;15.27;;;9.57;;
56043;SDS011;41912;51.022;3.664;2023-11-21T01:32:35;18.75;;;9.93;;
56043;SDS011;41912;51.022;3.664;2023-11-21T01:35:01;14.50;;;8.50;;
56043;SDS011;41912;51.022;3.664;2023-11-21T01:37:27;15.20;;;9.10;;
56043;SDS011;41912;51.022;3.664;2023-11-21T01:39:55;19.35;;;9.75;;
56043;SDS011;41912;51.022;3.664;2023-11-21T01:42:21;16.75;;;9.60;;
56043;SDS011;41912;51.022;3.664;2023-11-21T01:44:47;14.45;;;8.85;;
56043;SDS011;41912;51.022;3.664;2023-11-21T01:47:13;17.17;;;9.77;;
56043;SDS011;41912;51.022;3.664;2023-11-21T01:49:40;15.88;;;8.90;;
56043;SDS011;41912;51.022;3.664;2023-11-21T01:52:09;19.80;;;8.80;;
56043;SDS011;41912;51.022;3.664;2023-11-21T01:54:36;14.10;;;8.82;;
56043;SDS011;41912;51.022;3.664;2023-11-21T01:57:03;18.08;;;9.15;;
56043;SDS011;41912;51.022;3.664;2023-11-21T01:59:37;16.40;;;8.77;;
56043;SDS011;41912;51.022;3.664;2023-11-21T02:02:07;15.20;;;9.10;;
56043;SDS011;41912;51.022;3.664;2023-11-21T02:04:34;18.40;;;8.85;;
56043;SDS011;41912;51.022;3.664;2023-11-21T02:07:00;16.45;;;8.35;;
56043;SDS011;41912;51.022;3.664;2023-11-21T02:09:26;17.20;;;8.82;;
56043;SDS011;41912;51.022;3.664;2023-11-21T02:11:53;16.13;;;9.00;;
56043;SDS011;41912;51.022;3.664;2023-11-21T02:14:19;14.65;;;8.73;;
56043;SDS011;41912;51.022;3.664;2023-11-21T02:16:50;17.77;;;8.65;;
56043;SDS011;41912;51.022;3.664;2023-11-21T02:19:21;13.60;;;8.65;;
56043;SDS011;41912;51.022;3.664;2023-11-21T02:21:54;21.85;;;8.65;;
56043;SDS011;41912;51.022;3.664;2023-11-21T02:24:28;15.02;;;8.63;;
56043;SDS011;41912;51.022;3.664;2023-11-21T02:26:53;12.77;;;7.88;;
56043;SDS011;41912;51.022;3.664;2023-11-21T02:29:20;13.23;;;8.30;;
56043;SDS011;41912;51.022;3.664;2023-11-21T02:31:53;14.18;;;8.63;;
56043;SDS011;41912;51.022;3.664;2023-11-21T02:34:19;17.88;;;8.93;;
56043;SDS011;41912;51.022;3.664;2023-11-21T02:36:46;17.63;;;8.35;;
56043;SDS011;41912;51.022;3.664;2023-11-21T02:39:16;16.23;;;8.32;;
56043;SDS011;41912;51.022;3.664;2023-11-21T02:41:42;19.88;;;8.48;;
56043;SDS011;41912;51.022;3.664;2023-11-21T02:44:09;16.13;;;7.65;;
56043;SDS011;41912;51.022;3.664;2023-11-21T02:46:35;17.08;;;7.13;;
56043;SDS011;41912;51.022;3.664;2023-11-21T02:49:04;16.05;;;8.73;;
56043;SDS011;41912;51.022;3.664;2023-11-21T02:51:31;14.30;;;7.45;;
56043;SDS011;41912;51.022;3.664;2023-11-21T02:53:57;10.45;;;7.60;;
56043;SDS011;41912;51.022;3.664;2023-11-21T02:56:27;16.30;;;7.32;;
56043;SDS011;41912;51.022;3.664;2023-11-21T02:58:56;16.70;;;8.07;;
56043;SDS011;41912;51.022;3.664;2023-11-21T03:01:22;13.68;;;7.75;;
56043;SDS011;41912;51.022;3.664;2023-11-21T03:03:52;12.88;;;7.10;;
56043;SDS011;41912;51.022;3.664;2023-11-21T03:06:18;19.35;;;8.32;;
56043;SDS011;41912;51.022;3.664;2023-11-21T03:08:44;14.27;;;8.75;;
56043;SDS011;41912;51.022;3.664;2023-11-21T03:11:10;14.45;;;8.45;;
56043;SDS011;41912;51.022;3.664;2023-11-21T03:13:37;13.70;;;7.80;;
56043;SDS011;41912;51.022;3.664;2023-11-21T03:16:04;14.57;;;8.15;;
56043;SDS011;41912;51.022;3.664;2023-11-21T03:18:31;19.35;;;7.93;;
56043;SDS011;41912;51.022;3.664;2023-11-21T03:20:57;16.45;;;7.47;;
56043;SDS011;41912;51.022;3.664;2023-11-21T03:23:22;13.85;;;7.10;;
56043;SDS011;41912;51.022;3.664;2023-11-21T03:25:48;15.57;;;7.10;;
56043;SDS011;41912;51.022;3.664;2023-11-21T03:28:13;13.68;;;7.57;;
56043;SDS011;41912;51.022;3.664;2023-11-21T03:30:39;14.20;;;7.88;;
56043;SDS011;41912;51.022;3.664;2023-11-21T03:33:05;13.45;;;7.65;;
56043;SDS011;41912;51.022;3.664;2023-11-21T03:35:30;18.02;;;7.22;;
56043;SDS011;41912;51.022;3.664;2023-11-21T03:37:56;15.90;;;8.25;;
56043;SDS011;41912;51.022;3.664;2023-11-21T03:40:22;16.40;;;7.65;;
56043;SDS011;41912;51.022;3.664;2023-11-21T03:42:47;17.48;;;8.00;;
56043;SDS011;41912;51.022;3.664;2023-11-21T03:45:13;14.90;;;7.97;;
56043;SDS011;41912;51.022;3.664;2023-11-21T03:47:40;16.27;;;7.82;;
56043;SDS011;41912;51.022;3.664;2023-11-21T03:50:06;21.08;;;9.07;;
56043;SDS011;41912;51.022;3.664;2023-11-21T03:52:34;17.45;;;8.13;;
56043;SDS011;41912;51.022;3.664;2023-11-21T03:55:00;15.68;;;7.63;;
56043;SDS011;41912;51.022;3.664;2023-11-21T03:57:26;14.73;;;8.20;;
56043;SDS011;41912;51.022;3.664;2023-11-21T03:59:52;18.90;;;10.50;;
56043;SDS011;41912;51.022;3.664;2023-11-21T04:02:18;16.33;;;7.95;;
56043;SDS011;41912;51.022;3.664;2023-11-21T04:04:44;16.92;;;8.48;;
56043;SDS011;41912;51.022;3.664;2023-11-21T04:07:10;14.35;;;8.55;;
56043;SDS011;41912;51.022;3.664;2023-11-21T04:09:36;11.48;;;8.25;;
56043;SDS011;41912;51.022;3.664;2023-11-21T04:12:02;13.50;;;7.95;;
56043;SDS011;41912;51.022;3.664;2023-11-21T04:14:27;17.25;;;8.88;;
56043;SDS011;41912;51.022;3.664;2023-11-21T04:16:53;17.33;;;7.80;;
56043;SDS011;41912;51.022;3.664;2023-11-21T04:19:19;15.07;;;7.85;;
56043;SDS011;41912;51.022;3.664;2023-11-21T04:21:44;16.20;;;7.10;;
56043;SDS011;41912;51.022;3.664;2023-11-21T04:24:11;13.93;;;8.05;;
56043;SDS011;41912;51.022;3.664;2023-11-21T04:26:36;10.85;;;7.25;;
56043;SDS011;41912;51.022;3.664;2023-11-21T04:29:02;14.15;;;7.88;;
56043;SDS011;41912;51.022;3.664;2023-11-21T04:31:29;14.43;;;7.82;;
56043;SDS011;41912;51.022;3.664;2023-11-21T04:33:55;16.63;;;7.82;;
56043;SDS011;41912;51.022;3.664;2023-11-21T04:36:20;16.45;;;8.13;;
56043;SDS011;41912;51.022;3.664;2023-11-21T04:38:46;11.85;;;7.45;;
56043;SDS011;41912;51.022;3.664;2023-11-21T04:41:12;18.25;;;8.00;;
56043;SDS011;41912;51.022;3.664;2023-11-21T04:43:37;30.88;;;9.43;;
56043;SDS011;41912;51.022;3.664;2023-11-21T04:46:03;18.98;;;8.18;;
56043;SDS011;41912;51.022;3.664;2023-11-21T04:48:29;12.98;;;7.70;;
56043;SDS011;41912;51.022;3.664;2023-11-21T04:50:54;21.25;;;8.52;;
56043;SDS011;41912;51.022;3.664;2023-11-21T04:53:20;17.23;;;7.45;;
56043;SDS011;41912;51.022;3.664;2023-11-21T04:55:45;11.25;;;7.28;;
56043;SDS011;41912;51.022;3.664;2023-11-21T04:58:11;15.40;;;7.30;;
56043;SDS011;41912;51.022;3.664;2023-11-21T05:00:37;16.30;;;7.97;;
56043;SDS011;41912;51.022;3.664;2023-11-21T05:03:03;18.15;;;8.02;;
56043;SDS011;41912;51.022;3.664;2023-11-21T05:05:30;16.75;;;7.60;;
56043;SDS011;41912;51.022;3.664;2023-11-21T05:07:55;13.82;;;7.57;;
56043;SDS011;41912;51.022;3.664;2023-11-21T05:10:21;13.32;;;8.23;;
56043;SDS011;41912;51.022;3.664;2023-11-21T05:12:47;16.58;;;7.68;;
56043;SDS011;41912;51.022;3.664;2023-11-21T05:15:15;13.50;;;8.10;;
56043;SDS011;41912;51.022;3.664;2023-11-21T05:17:42;16.30;;;8.07;;
56043;SDS011;41912;51.022;3.664;2023-11-21T05:20:12;13.70;;;8.05;;
56043;SDS011;41912;51.022;3.664;2023-11-21T05:22:39;18.48;;;8.45;;
56043;SDS011;41912;51.022;3.664;2023-11-21T05:25:07;20.65;;;8.45;;
56043;SDS011;41912;51.022;3.664;2023-11-21T05:27:33;15.68;;;8.50;;
56043;SDS011;41912;51.022;3.664;2023-11-21T05:30:00;13.95;;;7.53;;
56043;SDS011;41912;51.022;3.664;2023-11-21T05:32:27;15.45;;;7.45;;
56043;SDS011;41912;51.022;3.664;2023-11-21T05:34:53;17.27;;;8.50;;
56043;SDS011;41912;51.022;3.664;2023-11-21T05:37:19;16.23;;;8.02;;
56043;SDS011;41912;51.022;3.664;2023-11-21T05:39:44;13.48;;;7.93;;
56043;SDS011;41912;51.022;3.664;2023-11-21T05:42:10;12.85;;;7.65;;
56043;SDS011;41912;51.022;3.664;2023-11-21T05:44:36;19.38;;;9.63;;
56043;SDS011;41912;51.022;3.664;2023-11-21T05:47:02;16.13;;;9.05;;
56043;SDS011;41912;51.022;3.664;2023-11-21T05:49:28;15.77;;;8.40;;
56043;SDS011;41912;51.022;3.664;2023-11-21T05:51:56;15.50;;;8.93;;
56043;SDS011;41912;51.022;3.664;2023-11-21T05:54:21;19.25;;;9.68;;
56043;SDS011;41912;51.022;3.664;2023-11-21T05:56:48;15.82;;;9.02;;
56043;SDS011;41912;51.022;3.664;2023-11-21T05:59:14;22.60;;;9.00;;
56043;SDS011;41912;51.022;3.664;2023-11-21T06:01:40;14.52;;;8.57;;
56043;SDS011;41912;51.022;3.664;2023-11-21T06:04:05;18.20;;;8.93;;
56043;SDS011;41912;51.022;3.664;2023-11-21T06:06:33;16.73;;;8.60;;
56043;SDS011;41912;51.022;3.664;2023-11-21T06:08:59;20.33;;;8.73;;
56043;SDS011;41912;51.022;3.664;2023-11-21T06:11:25;19.20;;;9.50;;
56043;SDS011;41912;51.022;3.664;2023-11-21T06:13:50;14.57;;;8.25;;
56043;SDS011;41912;51.022;3.664;2023-11-21T06:16:18;14.63;;;7.93;;
56043;SDS011;41912;51.022;3.664;2023-11-21T06:18:45;14.30;;;7.90;;
56043;SDS011;41912;51.022;3.664;2023-11-21T06:21:11;16.02;;;8.30;;
56043;SDS011;41912;51.022;3.664;2023-11-21T06:23:37;19.02;;;8.35;;
56043;SDS011;41912;51.022;3.664;2023-11-21T06:26:03;14.80;;;8.18;;
56043;SDS011;41912;51.022;3.664;2023-11-21T06:28:29;16.08;;;8.93;;
56043;SDS011;41912;51.022;3.664;2023-11-21T06:30:55;23.10;;;8.68;;
56043;SDS011;41912;51.022;3.664;2023-11-21T06:33:23;13.43;;;7.35;;
56043;SDS011;41912;51.022;3.664;2023-11-21T06:35:48;14.05;;;8.23;;
56043;SDS011;41912;51.022;3.664;2023-11-21T06:38:14;16.27;;;8.52;;
56043;SDS011;41912;51.022;3.664;2023-11-21T06:40:40;18.35;;;8.50;;
56043;SDS011;41912;51.022;3.664;2023-11-21T06:43:06;15.20;;;8.18;;
56043;SDS011;41912;51.022;3.664;2023-11-21T06:45:32;14.23;;;8.18;;
56043;SDS011;41912;51.022;3.664;2023-11-21T06:47:59;22.02;;;8.27;;
56043;SDS011;41912;51.022;3.664;2023-11-21T06:50:25;15.15;;;8.38;;
56043;SDS011;41912;51.022;3.664;2023-11-21T06:52:51;18.00;;;7.88;;
56043;SDS011;41912;51.022;3.664;2023-11-21T06:55:16;16.10;;;8.82;;
56043;SDS011;41912;51.022;3.664;2023-11-21T06:57:42;23.98;;;9.48;;
56043;SDS011;41912;51.022;3.664;2023-11-21T07:00:10;17.55;;;8.75;;
56043;SDS011;41912;51.022;3.664;2023-11-21T07:02:36;18.00;;;8.65;;
56043;SDS011;41912;51.022;3.664;2023-11-21T07:05:02;18.77;;;9.07;;
56043;SDS011;41912;51.022;3.664;2023-11-21T07:07:28;20.30;;;9.40;;
56043;SDS011;41912;51.022;3.664;2023-11-21T07:09:54;19.30;;;9.95;;
56043;SDS011;41912;51.022;3.664;2023-11-21T07:12:19;17.98;;;9.50;;
56043;SDS011;41912;51.022;3.664;2023-11-21T07:14:48;18.00;;;9.05;;
56043;SDS011;41912;51.022;3.664;2023-11-21T07:17:14;17.75;;;8.85;;
56043;SDS011;41912;51.022;3.664;2023-11-21T07:19:40;20.58;;;9.52;;
56043;SDS011;41912;51.022;3.664;2023-11-21T07:22:06;16.65;;;8.93;;
56043;SDS011;41912;51.022;3.664;2023-11-21T07:24:33;16.77;;;9.35;;
56043;SDS011;41912;51.022;3.664;2023-11-21T07:27:00;21.80;;;9.63;;
56043;SDS011;41912;51.022;3.664;2023-11-21T07:29:26;15.40;;;8.60;;
56043;SDS011;41912;51.022;3.664;2023-11-21T07:31:54;17.38;;;8.88;;
56043;SDS011;41912;51.022;3.664;2023-11-21T07:34:20;18.10;;;9.32;;
56043;SDS011;41912;51.022;3.664;2023-11-21T07:36:46;19.38;;;9.98;;
56043;SDS011;41912;51.022;3.664;2023-11-21T07:39:12;20.48;;;9.70;;
56043;SDS011;41912;51.022;3.664;2023-11-21T07:41:38;17.98;;;8.98;;
56043;SDS011;41912;51.022;3.664;2023-11-21T07:44:10;18.70;;;8.90;;
56043;SDS011;41912;51.022;3.664;2023-11-21T07:46:35;17.67;;;8.63;;
56043;SDS011;41912;51.022;3.664;2023-11-21T07:49:01;19.50;;;9.02;;
56043;SDS011;41912;51.022;3.664;2023-11-21T07:51:26;15.90;;;8.48;;
56043;SDS011;41912;51.022;3.664;2023-11-21T07:53:52;16.67;;;8.40;;
56043;SDS011;41912;51.022;3.664;2023-11-21T07:56:18;17.95;;;8.88;;
56043;SDS011;41912;51.022;3.664;2023-11-21T07:58:43;17.20;;;8.75;;
56043;SDS011;41912;51.022;3.664;2023-11-21T08:01:10;18.10;;;8.77;;
56043;SDS011;41912;51.022;3.664;2023-11-21T08:03:36;16.63;;;7.38;;
56043;SDS011;41912;51.022;3.664;2023-11-21T08:06:02;15.27;;;8.35;;
56043;SDS011;41912;51.022;3.664;2023-11-21T08:08:30;18.45;;;8.00;;
56043;SDS011;41912;51.022;3.664;2023-11-21T08:10:57;13.43;;;8.05;;
56043;SDS011;41912;51.022;3.664;2023-11-21T08:13:23;13.63;;;7.60;;
56043;SDS011;41912;51.022;3.664;2023-11-21T08:15:56;12.43;;;6.90;;
56043;SDS011;41912;51.022;3.664;2023-11-21T08:18:26;16.30;;;6.85;;
56043;SDS011;41912;51.022;3.664;2023-11-21T08:20:52;13.20;;;7.07;;
56043;SDS011;41912;51.022;3.664;2023-11-21T08:23:20;11.27;;;6.90;;
56043;SDS011;41912;51.022;3.664;2023-11-21T08:25:46;13.35;;;7.22;;
56043;SDS011;41912;51.022;3.664;2023-11-21T08:28:12;13.48;;;7.45;;
56043;SDS011;41912;51.022;3.664;2023-11-21T08:30:41;14.20;;;7.75;;
56043;SDS011;41912;51.022;3.664;2023-11-21T08:33:07;13.88;;;7.78;;
56043;SDS011;41912;51.022;3.664;2023-11-21T08:35:33;14.13;;;8.07;;
56043;SDS011;41912;51.022;3.664;2023-11-21T08:37:59;13.73;;;7.07;;
56043;SDS011;41912;51.022;3.664;2023-11-21T08:40:25;13.00;;;7.43;;
56043;SDS011;41912;51.022;3.664;2023-11-21T08:42:50;19.67;;;7.65;;
56043;SDS011;41912;51.022;3.664;2023-11-21T08:45:17;13.50;;;7.70;;
56043;SDS011;41912;51.022;3.664;2023-11-21T08:47:44;10.85;;;6.22;;
56043;SDS011;41912;51.022;3.664;2023-11-21T08:50:09;11.82;;;6.40;;
56043;SDS011;41912;51.022;3.664;2023-11-21T08:52:37;11.35;;;6.45;;
56043;SDS011;41912;51.022;3.664;2023-11-21T08:55:06;16.17;;;7.22;;
56043;SDS011;41912;51.022;3.664;2023-11-21T08:57:37;14.90;;;6.90;;
56043;SDS011;41912;51.022;3.664;2023-11-21T09:00:03;13.40;;;7.85;;
56043;SDS011;41912;51.022;3.664;2023-11-21T09:02:35;15.53;;;6.90;;
56043;SDS011;41912;51.022;3.664;2023-11-21T09:05:02;12.50;;;6.97;;
56043;SDS011;41912;51.022;3.664;2023-11-21T09:07:29;12.32;;;6.30;;
56043;SDS011;41912;51.022;3.664;2023-11-21T09:09:54;10.43;;;6.30;;
56043;SDS011;41912;51.022;3.664;2023-11-21T09:12:20;11.88;;;6.03;;
56043;SDS011;41912;51.022;3.664;2023-11-21T09:14:46;10.75;;;5.75;;
56043;SDS011;41912;51.022;3.664;2023-11-21T09:17:12;12.93;;;5.50;;
56043;SDS011;41912;51.022;3.664;2023-11-21T09:19:39;11.15;;;5.90;;
56043;SDS011;41912;51.022;3.664;2023-11-21T09:22:05;9.57;;;5.53;;
56043;SDS011;41912;51.022;3.664;2023-11-21T09:24:31;11.13;;;5.82;;
56043;SDS011;41912;51.022;3.664;2023-11-21T09:26:58;8.40;;;4.97;;
56043;SDS011;41912;51.022;3.664;2023-11-21T09:29:25;11.35;;;5.20;;
56043;SDS011;41912;51.022;3.664;2023-11-21T09:31:51;11.60;;;5.30;;
56043;SDS011;41912;51.022;3.664;2023-11-21T09:34:16;10.80;;;5.20;;
56043;SDS011;41912;51.022;3.664;2023-11-21T09:36:45;9.38;;;5.18;;
56043;SDS011;41912;51.022;3.664;2023-11-21T09:39:11;9.43;;;4.60;;
56043;SDS011;41912;51.022;3.664;2023-11-21T09:44:16;12.02;;;4.93;;
56043;SDS011;41912;51.022;3.664;2023-11-21T09:46:43;6.97;;;3.92;;
56043;SDS011;41912;51.022;3.664;2023-11-21T09:49:13;7.18;;;3.83;;
56043;SDS011;41912;51.022;3.664;2023-11-21T09:51:41;8.85;;;3.80;;
56043;SDS011;41912;51.022;3.664;2023-11-21T09:54:08;5.05;;;3.22;;
56043;SDS011;41912;51.022;3.664;2023-11-21T09:56:37;7.53;;;3.50;;
56043;SDS011;41912;51.022;3.664;2023-11-21T09:59:03;9.48;;;3.47;;
56043;SDS011;41912;51.022;3.664;2023-11-21T10:01:32;5.68;;;2.85;;
56043;SDS011;41912;51.022;3.664;2023-11-21T10:04:00;7.30;;;3.42;;
56043;SDS011;41912;51.022;3.664;2023-11-21T10:06:26;5.47;;;3.13;;
56043;SDS011;41912;51.022;3.664;2023-11-21T10:08:53;5.78;;;3.08;;
56043;SDS011;41912;51.022;3.664;2023-11-21T10:11:23;4.55;;;2.75;;
56043;SDS011;41912;51.022;3.664;2023-11-21T10:13:52;6.40;;;4.18;;
56043;SDS011;41912;51.022;3.664;2023-11-21T10:16:19;5.43;;;3.30;;
56043;SDS011;41912;51.022;3.664;2023-11-21T10:18:49;7.80;;;3.05;;
56043;SDS011;41912;51.022;3.664;2023-11-21T10:21:20;5.85;;;3.45;;
56043;SDS011;41912;51.022;3.664;2023-11-21T10:23:46;8.75;;;3.20;;
56043;SDS011;41912;51.022;3.664;2023-11-21T10:26:12;7.90;;;3.35;;
56043;SDS011;41912;51.022;3.664;2023-11-21T10:29:00;7.70;;;2.67;;
56043;SDS011;41912;51.022;3.664;2023-11-21T10:31:30;6.72;;;2.78;;
56043;SDS011;41912;51.022;3.664;2023-11-21T10:34:14;9.32;;;2.90;;
56043;SDS011;41912;51.022;3.664;2023-11-21T10:36:41;9.95;;;3.47;;
56043;SDS011;41912;51.022;3.664;2023-11-21T10:39:07;11.13;;;2.70;;
56043;SDS011;41912;51.022;3.664;2023-11-21T10:41:34;7.15;;;2.85;;
56043;SDS011;41912;51.022;3.664;2023-11-21T10:44:01;11.23;;;3.00;;
56043;SDS011;41912;51.022;3.664;2023-11-21T10:46:31;11.43;;;3.47;;
56043;SDS011;41912;51.022;3.664;2023-11-21T10:48:57;13.88;;;3.63;;
56043;SDS011;41912;51.022;3.664;2023-11-21T10:51:22;6.25;;;3.45;;
56043;SDS011;41912;51.022;3.664;2023-11-21T10:53:53;7.25;;;2.83;;
56043;SDS011;41912;51.022;3.664;2023-11-21T10:56:19;6.75;;;2.80;;
56043;SDS011;41912;51.022;3.664;2023-11-21T10:58:49;6.30;;;3.25;;
56043;SDS011;41912;51.022;3.664;2023-11-21T11:01:19;8.55;;;2.95;;
56043;SDS011;41912;51.022;3.664;2023-11-21T11:03:48;5.60;;;2.47;;
56043;SDS011;41912;51.022;3.664;2023-11-21T11:06:15;8.80;;;2.60;;
56043;SDS011;41912;51.022;3.664;2023-11-21T11:08:41;12.35;;;3.03;;
56043;SDS011;41912;51.022;3.664;2023-11-21T11:11:07;9.73;;;3.22;;
56043;SDS011;41912;51.022;3.664;2023-11-21T11:13:35;5.15;;;2.08;;
56043;SDS011;41912;51.022;3.664;2023-11-21T11:16:03;6.63;;;1.92;;
56043;SDS011;41912;51.022;3.664;2023-11-21T11:18:33;11.70;;;2.30;;
56043;SDS011;41912;51.022;3.664;2023-11-21T11:21:01;10.30;;;3.17;;
56043;SDS011;41912;51.022;3.664;2023-11-21T11:23:58;5.20;;;2.10;;
56043;SDS011;41912;51.022;3.664;2023-11-21T11:35:14;4.45;;;1.75;;
56043;SDS011;41912;51.022;3.664;2023-11-21T11:37:48;9.80;;;1.90;;
56043;SDS011;41912;51.022;3.664;2023-11-21T11:40:14;11.82;;;1.95;;
56043;SDS011;41912;51.022;3.664;2023-11-21T11:42:54;7.50;;;1.70;;
56043;SDS011;41912;51.022;3.664;2023-11-21T11:45:22;7.80;;;2.42;;
56043;SDS011;41912;51.022;3.664;2023-11-21T11:47:56;10.48;;;1.60;;
56043;SDS011;41912;51.022;3.664;2023-11-21T11:50:22;5.85;;;1.77;;
56043;SDS011;41912;51.022;3.664;2023-11-21T11:52:50;7.07;;;2.03;;
56043;SDS011;41912;51.022;3.664;2023-11-21T11:55:23;6.28;;;1.65;;
56043;SDS011;41912;51.022;3.664;2023-11-21T12:02:56;6.03;;;1.70;;
56043;SDS011;41912;51.022;3.664;2023-11-21T12:05:24;6.95;;;1.73;;
56043;SDS011;41912;51.022;3.664;2023-11-21T12:07:56;9.75;;;1.63;;
56043;SDS011;41912;51.022;3.664;2023-11-21T12:10:26;11.15;;;1.80;;
56043;SDS011;41912;51.022;3.664;2023-11-21T12:13:02;4.43;;;1.40;;
56043;SDS011;41912;51.022;3.664;2023-11-21T12:15:35;10.47;;;2.30;;
56043;SDS011;41912;51.022;3.664;2023-11-21T12:18:01;5.75;;;1.65;;
56043;SDS011;41912;51.022;3.664;2023-11-21T12:20:27;6.55;;;1.50;;
56043;SDS011;41912;51.022;3.664;2023-11-21T12:22:54;8.32;;;1.80;;
56043;SDS011;41912;51.022;3.664;2023-11-21T12:25:21;6.72;;;1.60;;
56043;SDS011;41912;51.022;3.664;2023-11-21T12:27:49;5.18;;;1.45;;
56043;SDS011;41912;51.022;3.664;2023-11-21T12:30:19;6.78;;;2.30;;
56043;SDS011;41912;51.022;3.664;2023-11-21T12:32:52;7.43;;;1.67;;
56043;SDS011;41912;51.022;3.664;2023-11-21T12:35:22;6.95;;;1.90;;
56043;SDS011;41912;51.022;3.664;2023-11-21T12:37:49;4.57;;;1.55;;
56043;SDS011;41912;51.022;3.664;2023-11-21T12:40:17;5.30;;;1.67;;
56043;SDS011;41912;51.022;3.664;2023-11-21T12:42:44;5.80;;;1.80;;
56043;SDS011;41912;51.022;3.664;2023-11-21T12:47:45;3.83;;;1.60;;
56043;SDS011;41912;51.022;3.664;2023-11-21T12:50:12;5.97;;;1.60;;
56043;SDS011;41912;51.022;3.664;2023-11-21T12:52:41;5.07;;;1.63;;
56043;SDS011;41912;51.022;3.664;2023-11-21T12:55:14;8.63;;;2.00;;
56043;SDS011;41912;51.022;3.664;2023-11-21T12:57:48;9.13;;;1.70;;
56043;SDS011;41912;51.022;3.664;2023-11-21T13:00:16;7.15;;;1.98;;
56043;SDS011;41912;51.022;3.664;2023-11-21T13:02:55;6.72;;;1.60;;
56043;SDS011;41912;51.022;3.664;2023-11-21T13:05:37;4.55;;;1.38;;
56043;SDS011;41912;51.022;3.664;2023-11-21T13:08:08;7.07;;;1.92;;
56043;SDS011;41912;51.022;3.664;2023-11-21T13:10:36;4.75;;;1.92;;
56043;SDS011;41912;51.022;3.664;2023-11-21T13:13:05;10.45;;;2.67;;
56043;SDS011;41912;51.022;3.664;2023-11-21T13:15:35;6.53;;;2.00;;
56043;SDS011;41912;51.022;3.664;2023-11-21T13:18:05;4.10;;;1.95;;
56043;SDS011;41912;51.022;3.664;2023-11-21T13:20:32;3.47;;;1.80;;
56043;SDS011;41912;51.022;3.664;2023-11-21T13:22:58;7.10;;;2.08;;
56043;SDS011;41912;51.022;3.664;2023-11-21T13:25:26;4.88;;;1.73;;
56043;SDS011;41912;51.022;3.664;2023-11-21T13:27:55;3.67;;;1.73;;
56043;SDS011;41912;51.022;3.664;2023-11-21T13:30:21;3.13;;;1.70;;
56043;SDS011;41912;51.022;3.664;2023-11-21T13:32:51;4.75;;;1.60;;
56043;SDS011;41912;51.022;3.664;2023-11-21T13:35:27;4.18;;;1.40;;
56043;SDS011;41912;51.022;3.664;2023-11-21T13:37:57;5.18;;;1.33;;
56043;SDS011;41912;51.022;3.664;2023-11-21T13:40:38;2.85;;;1.27;;
56043;SDS011;41912;51.022;3.664;2023-11-21T13:43:09;3.58;;;1.05;;
56043;SDS011;41912;51.022;3.664;2023-11-21T13:45:39;1.55;;;1.05;;
56043;SDS011;41912;51.022;3.664;2023-11-21T13:48:06;2.92;;;1.30;;
56043;SDS011;41912;51.022;3.664;2023-11-21T13:50:44;5.03;;;1.73;;
56043;SDS011;41912;51.022;3.664;2023-11-21T13:53:31;4.43;;;1.70;;
56043;SDS011;41912;51.022;3.664;2023-11-21T13:55:58;3.38;;;1.70;;
56043;SDS011;41912;51.022;3.664;2023-11-21T13:58:23;5.03;;;1.25;;
56043;SDS011;41912;51.022;3.664;2023-11-21T14:01:00;8.30;;;1.65;;
56043;SDS011;41912;51.022;3.664;2023-11-21T14:03:30;3.85;;;1.52;;
56043;SDS011;41912;51.022;3.664;2023-11-21T14:06:09;2.60;;;1.30;;
56043;SDS011;41912;51.022;3.664;2023-11-21T14:08:40;4.90;;;1.60;;
56043;SDS011;41912;51.022;3.664;2023-11-21T14:11:06;3.67;;;1.70;;
56043;SDS011;41912;51.022;3.664;2023-11-21T14:13:32;2.97;;;1.40;;
56043;SDS011;41912;51.022;3.664;2023-11-21T14:15:58;3.42;;;1.55;;
56043;SDS011;41912;51.022;3.664;2023-11-21T14:18:27;3.00;;;1.40;;
56043;SDS011;41912;51.022;3.664;2023-11-21T14:21:04;2.00;;;1.52;;
56043;SDS011;41912;51.022;3.664;2023-11-21T14:23:30;3.05;;;1.67;;
56043;SDS011;41912;51.022;3.664;2023-11-21T14:25:58;3.03;;;1.35;;
56043;SDS011;41912;51.022;3.664;2023-11-21T14:28:26;2.58;;;1.40;;
56043;SDS011;41912;51.022;3.664;2023-11-21T14:30:51;2.30;;;1.50;;
56043;SDS011;41912;51.022;3.664;2023-11-21T14:33:17;3.05;;;1.55;;
56043;SDS011;41912;51.022;3.664;2023-11-21T14:35:43;1.92;;;1.50;;
56043;SDS011;41912;51.022;3.664;2023-11-21T14:38:09;3.38;;;2.20;;
56043;SDS011;41912;51.022;3.664;2023-11-21T14:40:35;3.40;;;2.33;;
56043;SDS011;41912;51.022;3.664;2023-11-21T14:43:02;6.32;;;2.70;;
56043;SDS011;41912;51.022;3.664;2023-11-21T14:45:34;3.28;;;2.42;;
56043;SDS011;41912;51.022;3.664;2023-11-21T14:48:00;3.60;;;2.70;;
56043;SDS011;41912;51.022;3.664;2023-11-21T14:50:40;2.88;;;2.40;;
56043;SDS011;41912;51.022;3.664;2023-11-21T14:53:34;4.03;;;2.50;;
56043;SDS011;41912;51.022;3.664;2023-11-21T14:56:21;3.38;;;2.50;;
56043;SDS011;41912;51.022;3.664;2023-11-21T14:58:52;6.10;;;2.83;;
56043;SDS011;41912;51.022;3.664;2023-11-21T15:01:19;3.15;;;2.42;;